sensor_id;sensor_type;location;lat;lon;timestamp;P1;durP1;ratioP1;P2;durP2;ratioP2
27145;SDS011;17980;51.744;7.190;2022-11-15T00:01:41;14.00;;;12.57;;
27145;SDS011;17980;51.744;7.190;2022-11-15T00:04:09;12.77;;;11.47;;
27145;SDS011;17980;51.744;7.190;2022-11-15T00:09:12;14.73;;;12.47;;
27145;SDS011;17980;51.744;7.190;2022-11-15T00:11:39;14.97;;;12.63;;
27145;SDS011;17980;51.744;7.190;2022-11-15T00:14:07;13.30;;;11.50;;
27145;SDS011;17980;51.744;7.190;2022-11-15T00:16:44;12.93;;;11.60;;
27145;SDS011;17980;51.744;7.190;2022-11-15T00:19:11;14.43;;;12.07;;
27145;SDS011;17980;51.744;7.190;2022-11-15T00:21:39;13.43;;;11.80;;
27145;SDS011;17980;51.744;7.190;2022-11-15T00:24:06;16.40;;;11.77;;
27145;SDS011;17980;51.744;7.190;2022-11-15T00:26:44;15.77;;;13.73;;
27145;SDS011;17980;51.744;7.190;2022-11-15T00:29:11;16.60;;;12.67;;
27145;SDS011;17980;51.744;7.190;2022-11-15T00:31:48;13.37;;;11.97;;
27145;SDS011;17980;51.744;7.190;2022-11-15T00:34:15;12.47;;;11.17;;
27145;SDS011;17980;51.744;7.190;2022-11-15T00:36:43;13.27;;;10.87;;
27145;SDS011;17980;51.744;7.190;2022-11-15T00:39:20;13.33;;;11.57;;
27145;SDS011;17980;51.744;7.190;2022-11-15T00:41:47;13.80;;;11.27;;
27145;SDS011;17980;51.744;7.190;2022-11-15T00:44:14;12.20;;;10.87;;
27145;SDS011;17980;51.744;7.190;2022-11-15T00:46:51;14.07;;;11.70;;
27145;SDS011;17980;51.744;7.190;2022-11-15T00:49:18;12.63;;;11.33;;
27145;SDS011;17980;51.744;7.190;2022-11-15T00:51:45;13.37;;;11.63;;
27145;SDS011;17980;51.744;7.190;2022-11-15T00:54:22;12.77;;;10.57;;
27145;SDS011;17980;51.744;7.190;2022-11-15T00:56:49;15.03;;;11.20;;
27145;SDS011;17980;51.744;7.190;2022-11-15T00:59:27;12.63;;;11.10;;
27145;SDS011;17980;51.744;7.190;2022-11-15T01:01:55;13.57;;;11.23;;
27145;SDS011;17980;51.744;7.190;2022-11-15T01:04:31;12.13;;;10.57;;
27145;SDS011;17980;51.744;7.190;2022-11-15T01:06:59;14.50;;;10.87;;
27145;SDS011;17980;51.744;7.190;2022-11-15T01:09:26;12.03;;;10.17;;
27145;SDS011;17980;51.744;7.190;2022-11-15T01:11:53;11.43;;;10.27;;
27145;SDS011;17980;51.744;7.190;2022-11-15T01:14:20;11.13;;;9.70;;
27145;SDS011;17980;51.744;7.190;2022-11-15T01:16:57;12.77;;;11.13;;
27145;SDS011;17980;51.744;7.190;2022-11-15T01:19:25;14.23;;;10.27;;
27145;SDS011;17980;51.744;7.190;2022-11-15T01:22:02;12.30;;;10.40;;
27145;SDS011;17980;51.744;7.190;2022-11-15T01:24:29;11.63;;;10.43;;
27145;SDS011;17980;51.744;7.190;2022-11-15T01:26:56;13.40;;;9.77;;
27145;SDS011;17980;51.744;7.190;2022-11-15T01:29:24;14.97;;;10.53;;
27145;SDS011;17980;51.744;7.190;2022-11-15T01:32:00;13.03;;;10.90;;
27145;SDS011;17980;51.744;7.190;2022-11-15T01:34:28;10.83;;;9.73;;
27145;SDS011;17980;51.744;7.190;2022-11-15T01:37:05;11.50;;;10.30;;
27145;SDS011;17980;51.744;7.190;2022-11-15T01:39:33;13.40;;;10.43;;
27145;SDS011;17980;51.744;7.190;2022-11-15T01:42:00;10.73;;;9.47;;
27145;SDS011;17980;51.744;7.190;2022-11-15T01:44:39;11.23;;;10.07;;
27145;SDS011;17980;51.744;7.190;2022-11-15T01:47:20;10.87;;;9.73;;
27145;SDS011;17980;51.744;7.190;2022-11-15T01:49:51;10.07;;;8.87;;
27145;SDS011;17980;51.744;7.190;2022-11-15T01:52:30;12.63;;;9.87;;
27145;SDS011;17980;51.744;7.190;2022-11-15T01:55:03;12.50;;;10.00;;
27145;SDS011;17980;51.744;7.190;2022-11-15T01:57:33;12.63;;;10.00;;
27145;SDS011;17980;51.744;7.190;2022-11-15T02:00:12;11.60;;;9.87;;
27145;SDS011;17980;51.744;7.190;2022-11-15T02:02:41;11.23;;;9.63;;
27145;SDS011;17980;51.744;7.190;2022-11-15T02:05:08;12.63;;;10.50;;
27145;SDS011;17980;51.744;7.190;2022-11-15T02:07:45;11.73;;;9.87;;
27145;SDS011;17980;51.744;7.190;2022-11-15T02:10:17;11.47;;;10.20;;
27145;SDS011;17980;51.744;7.190;2022-11-15T02:12:45;13.47;;;10.83;;
27145;SDS011;17980;51.744;7.190;2022-11-15T02:15:13;13.37;;;10.43;;
27145;SDS011;17980;51.744;7.190;2022-11-15T02:17:56;12.03;;;10.73;;
27145;SDS011;17980;51.744;7.190;2022-11-15T02:20:32;12.40;;;11.10;;
27145;SDS011;17980;51.744;7.190;2022-11-15T02:23:29;12.13;;;10.83;;
27145;SDS011;17980;51.744;7.190;2022-11-15T02:26:11;11.93;;;10.30;;
27145;SDS011;17980;51.744;7.190;2022-11-15T02:29:00;11.57;;;10.40;;
27145;SDS011;17980;51.744;7.190;2022-11-15T02:31:31;11.63;;;10.27;;
27145;SDS011;17980;51.744;7.190;2022-11-15T02:34:11;12.07;;;10.27;;
27145;SDS011;17980;51.744;7.190;2022-11-15T02:36:42;12.60;;;10.00;;
27145;SDS011;17980;51.744;7.190;2022-11-15T02:39:23;14.07;;;10.87;;
27145;SDS011;17980;51.744;7.190;2022-11-15T02:41:53;13.87;;;10.53;;
27145;SDS011;17980;51.744;7.190;2022-11-15T02:44:23;11.63;;;10.10;;
27145;SDS011;17980;51.744;7.190;2022-11-15T02:47:01;12.13;;;10.47;;
27145;SDS011;17980;51.744;7.190;2022-11-15T02:49:41;13.00;;;9.93;;
27145;SDS011;17980;51.744;7.190;2022-11-15T02:52:20;11.87;;;9.63;;
27145;SDS011;17980;51.744;7.190;2022-11-15T02:54:53;11.50;;;9.97;;
27145;SDS011;17980;51.744;7.190;2022-11-15T02:57:32;11.90;;;10.20;;
27145;SDS011;17980;51.744;7.190;2022-11-15T03:00:06;12.27;;;10.47;;
27145;SDS011;17980;51.744;7.190;2022-11-15T03:03:09;17.53;;;10.00;;
27145;SDS011;17980;51.744;7.190;2022-11-15T03:05:59;14.20;;;9.70;;
27145;SDS011;17980;51.744;7.190;2022-11-15T03:08:38;11.10;;;9.90;;
27145;SDS011;17980;51.744;7.190;2022-11-15T03:11:11;11.07;;;9.90;;
27145;SDS011;17980;51.744;7.190;2022-11-15T03:13:43;12.77;;;10.80;;
27145;SDS011;17980;51.744;7.190;2022-11-15T03:16:20;11.93;;;9.80;;
27145;SDS011;17980;51.744;7.190;2022-11-15T03:18:52;11.03;;;9.93;;
27145;SDS011;17980;51.744;7.190;2022-11-15T03:21:22;11.33;;;10.13;;
27145;SDS011;17980;51.744;7.190;2022-11-15T03:23:53;11.10;;;10.00;;
27145;SDS011;17980;51.744;7.190;2022-11-15T03:26:23;15.10;;;9.63;;
27145;SDS011;17980;51.744;7.190;2022-11-15T03:29:03;9.70;;;8.57;;
27145;SDS011;17980;51.744;7.190;2022-11-15T03:31:33;11.83;;;10.00;;
27145;SDS011;17980;51.744;7.190;2022-11-15T03:34:19;11.33;;;9.30;;
27145;SDS011;17980;51.744;7.190;2022-11-15T03:36:51;10.60;;;9.50;;
27145;SDS011;17980;51.744;7.190;2022-11-15T03:39:19;10.93;;;9.73;;
27145;SDS011;17980;51.744;7.190;2022-11-15T03:41:59;11.13;;;9.20;;
27145;SDS011;17980;51.744;7.190;2022-11-15T03:44:34;12.03;;;9.30;;
27145;SDS011;17980;51.744;7.190;2022-11-15T03:47:06;12.37;;;9.80;;
27145;SDS011;17980;51.744;7.190;2022-11-15T03:49:35;9.90;;;8.83;;
27145;SDS011;17980;51.744;7.190;2022-11-15T03:52:05;12.23;;;9.37;;
27145;SDS011;17980;51.744;7.190;2022-11-15T03:54:32;10.13;;;9.13;;
27145;SDS011;17980;51.744;7.190;2022-11-15T03:57:09;11.20;;;9.97;;
27145;SDS011;17980;51.744;7.190;2022-11-15T03:59:36;10.90;;;9.43;;
27145;SDS011;17980;51.744;7.190;2022-11-15T04:02:13;10.17;;;9.17;;
27145;SDS011;17980;51.744;7.190;2022-11-15T04:04:40;10.80;;;9.70;;
27145;SDS011;17980;51.744;7.190;2022-11-15T04:07:07;8.40;;;7.60;;
27145;SDS011;17980;51.744;7.190;2022-11-15T04:09:35;10.23;;;9.17;;
27145;SDS011;17980;51.744;7.190;2022-11-15T04:12:04;11.03;;;9.13;;
27145;SDS011;17980;51.744;7.190;2022-11-15T04:14:32;10.70;;;8.47;;
27145;SDS011;17980;51.744;7.190;2022-11-15T04:17:08;9.43;;;8.13;;
27145;SDS011;17980;51.744;7.190;2022-11-15T04:19:36;10.30;;;8.77;;
27145;SDS011;17980;51.744;7.190;2022-11-15T04:22:21;9.23;;;8.20;;
27145;SDS011;17980;51.744;7.190;2022-11-15T04:25:07;9.70;;;8.43;;
27145;SDS011;17980;51.744;7.190;2022-11-15T04:27:44;10.30;;;8.07;;
27145;SDS011;17980;51.744;7.190;2022-11-15T04:30:11;10.97;;;8.17;;
27145;SDS011;17980;51.744;7.190;2022-11-15T04:32:49;9.27;;;8.27;;
27145;SDS011;17980;51.744;7.190;2022-11-15T04:35:16;10.50;;;8.17;;
27145;SDS011;17980;51.744;7.190;2022-11-15T04:37:43;9.20;;;8.30;;
27145;SDS011;17980;51.744;7.190;2022-11-15T04:40:11;12.37;;;8.03;;
27145;SDS011;17980;51.744;7.190;2022-11-15T04:42:40;9.90;;;7.30;;
27145;SDS011;17980;51.744;7.190;2022-11-15T04:45:09;10.03;;;8.53;;
27145;SDS011;17980;51.744;7.190;2022-11-15T04:47:46;8.43;;;7.50;;
27145;SDS011;17980;51.744;7.190;2022-11-15T04:50:14;10.23;;;7.53;;
27145;SDS011;17980;51.744;7.190;2022-11-15T04:52:42;10.60;;;7.90;;
27145;SDS011;17980;51.744;7.190;2022-11-15T04:55:19;9.30;;;8.13;;
27145;SDS011;17980;51.744;7.190;2022-11-15T04:57:47;10.27;;;7.77;;
27145;SDS011;17980;51.744;7.190;2022-11-15T05:00:17;10.10;;;8.63;;
27145;SDS011;17980;51.744;7.190;2022-11-15T05:02:54;9.87;;;8.07;;
27145;SDS011;17980;51.744;7.190;2022-11-15T05:05:39;9.63;;;7.57;;
27145;SDS011;17980;51.744;7.190;2022-11-15T05:08:06;9.80;;;7.87;;
27145;SDS011;17980;51.744;7.190;2022-11-15T05:10:34;11.60;;;8.47;;
27145;SDS011;17980;51.744;7.190;2022-11-15T05:13:01;9.40;;;8.43;;
27145;SDS011;17980;51.744;7.190;2022-11-15T05:15:28;8.40;;;7.60;;
27145;SDS011;17980;51.744;7.190;2022-11-15T05:18:05;10.73;;;8.77;;
27145;SDS011;17980;51.744;7.190;2022-11-15T05:20:32;10.70;;;8.97;;
27145;SDS011;17980;51.744;7.190;2022-11-15T05:22:59;12.87;;;9.83;;
27145;SDS011;17980;51.744;7.190;2022-11-15T05:25:27;11.47;;;8.63;;
27145;SDS011;17980;51.744;7.190;2022-11-15T05:28:04;11.63;;;9.30;;
27145;SDS011;17980;51.744;7.190;2022-11-15T05:30:31;12.30;;;8.73;;
27145;SDS011;17980;51.744;7.190;2022-11-15T05:32:58;11.03;;;9.27;;
27145;SDS011;17980;51.744;7.190;2022-11-15T05:35:36;10.23;;;8.93;;
27145;SDS011;17980;51.744;7.190;2022-11-15T05:38:06;10.17;;;9.17;;
27145;SDS011;17980;51.744;7.190;2022-11-15T05:40:34;13.07;;;8.87;;
27145;SDS011;17980;51.744;7.190;2022-11-15T05:43:02;11.77;;;9.90;;
27145;SDS011;17980;51.744;7.190;2022-11-15T05:45:31;13.57;;;9.50;;
27145;SDS011;17980;51.744;7.190;2022-11-15T05:48:10;12.60;;;9.23;;
27145;SDS011;17980;51.744;7.190;2022-11-15T05:50:38;10.67;;;9.23;;
27145;SDS011;17980;51.744;7.190;2022-11-15T05:53:08;11.93;;;8.53;;
27145;SDS011;17980;51.744;7.190;2022-11-15T05:55:46;9.30;;;8.30;;
27145;SDS011;17980;51.744;7.190;2022-11-15T05:58:14;8.93;;;7.53;;
27145;SDS011;17980;51.744;7.190;2022-11-15T06:00:42;7.37;;;6.40;;
27145;SDS011;17980;51.744;7.190;2022-11-15T06:03:19;6.93;;;6.23;;
27145;SDS011;17980;51.744;7.190;2022-11-15T06:05:46;7.97;;;7.23;;
27145;SDS011;17980;51.744;7.190;2022-11-15T06:08:23;6.83;;;6.07;;
27145;SDS011;17980;51.744;7.190;2022-11-15T06:10:53;6.60;;;6.00;;
27145;SDS011;17980;51.744;7.190;2022-11-15T06:13:20;6.33;;;5.73;;
27145;SDS011;17980;51.744;7.190;2022-11-15T06:15:47;8.47;;;6.40;;
27145;SDS011;17980;51.744;7.190;2022-11-15T06:18:24;7.17;;;6.10;;
27145;SDS011;17980;51.744;7.190;2022-11-15T06:20:52;6.87;;;6.17;;
27145;SDS011;17980;51.744;7.190;2022-11-15T06:23:19;6.83;;;6.10;;
27145;SDS011;17980;51.744;7.190;2022-11-15T06:25:46;9.43;;;6.67;;
27145;SDS011;17980;51.744;7.190;2022-11-15T06:28:23;10.47;;;6.60;;
27145;SDS011;17980;51.744;7.190;2022-11-15T06:30:50;9.43;;;7.43;;
27145;SDS011;17980;51.744;7.190;2022-11-15T06:33:18;11.13;;;8.93;;
27145;SDS011;17980;51.744;7.190;2022-11-15T06:35:45;8.20;;;6.87;;
27145;SDS011;17980;51.744;7.190;2022-11-15T06:38:22;6.67;;;6.07;;
27145;SDS011;17980;51.744;7.190;2022-11-15T06:40:49;7.23;;;6.63;;
27145;SDS011;17980;51.744;7.190;2022-11-15T06:43:16;8.27;;;6.57;;
27145;SDS011;17980;51.744;7.190;2022-11-15T06:45:43;7.43;;;6.30;;
27145;SDS011;17980;51.744;7.190;2022-11-15T06:48:20;7.67;;;6.97;;
27145;SDS011;17980;51.744;7.190;2022-11-15T06:50:50;6.97;;;6.37;;
27145;SDS011;17980;51.744;7.190;2022-11-15T06:53:18;7.00;;;6.30;;
27145;SDS011;17980;51.744;7.190;2022-11-15T06:55:45;9.00;;;7.50;;
27145;SDS011;17980;51.744;7.190;2022-11-15T06:58:22;8.13;;;7.43;;
27145;SDS011;17980;51.744;7.190;2022-11-15T07:00:49;9.47;;;7.37;;
27145;SDS011;17980;51.744;7.190;2022-11-15T07:03:25;8.93;;;7.40;;
27145;SDS011;17980;51.744;7.190;2022-11-15T07:05:53;7.80;;;7.10;;
27145;SDS011;17980;51.744;7.190;2022-11-15T07:08:30;8.60;;;7.17;;
27145;SDS011;17980;51.744;7.190;2022-11-15T07:10:58;7.93;;;6.90;;
27145;SDS011;17980;51.744;7.190;2022-11-15T07:13:27;8.03;;;7.30;;
27145;SDS011;17980;51.744;7.190;2022-11-15T07:15:57;7.43;;;6.83;;
27145;SDS011;17980;51.744;7.190;2022-11-15T07:18:36;7.50;;;6.77;;
27145;SDS011;17980;51.744;7.190;2022-11-15T07:21:05;7.47;;;6.10;;
27145;SDS011;17980;51.744;7.190;2022-11-15T07:23:35;7.00;;;6.23;;
27145;SDS011;17980;51.744;7.190;2022-11-15T07:26:12;9.90;;;6.20;;
27145;SDS011;17980;51.744;7.190;2022-11-15T07:28:39;5.90;;;5.40;;
27145;SDS011;17980;51.744;7.190;2022-11-15T07:31:07;7.47;;;4.73;;
27145;SDS011;17980;51.744;7.190;2022-11-15T07:33:34;4.90;;;4.40;;
27145;SDS011;17980;51.744;7.190;2022-11-15T07:36:11;4.97;;;4.17;;
27145;SDS011;17980;51.744;7.190;2022-11-15T07:38:38;4.73;;;4.33;;
27145;SDS011;17980;51.744;7.190;2022-11-15T07:41:06;4.23;;;3.90;;
27145;SDS011;17980;51.744;7.190;2022-11-15T07:43:33;4.93;;;4.00;;
27145;SDS011;17980;51.744;7.190;2022-11-15T07:46:10;5.07;;;3.90;;
27145;SDS011;17980;51.744;7.190;2022-11-15T07:48:37;4.27;;;3.63;;
27145;SDS011;17980;51.744;7.190;2022-11-15T07:51:06;3.93;;;3.63;;
27145;SDS011;17980;51.744;7.190;2022-11-15T07:56:11;3.13;;;2.90;;
27145;SDS011;17980;51.744;7.190;2022-11-15T07:58:39;2.90;;;2.60;;
27145;SDS011;17980;51.744;7.190;2022-11-15T08:01:15;3.57;;;2.90;;
27145;SDS011;17980;51.744;7.190;2022-11-15T08:03:43;2.97;;;2.67;;
27145;SDS011;17980;51.744;7.190;2022-11-15T08:06:25;5.07;;;2.67;;
27145;SDS011;17980;51.744;7.190;2022-11-15T08:08:53;3.70;;;1.80;;
27145;SDS011;17980;51.744;7.190;2022-11-15T08:11:20;2.50;;;2.00;;
27145;SDS011;17980;51.744;7.190;2022-11-15T08:13:47;2.40;;;2.10;;
27145;SDS011;17980;51.744;7.190;2022-11-15T08:16:24;3.77;;;1.37;;
27145;SDS011;17980;51.744;7.190;2022-11-15T08:18:51;4.40;;;1.30;;
27145;SDS011;17980;51.744;7.190;2022-11-15T08:21:19;2.03;;;1.47;;
27145;SDS011;17980;51.744;7.190;2022-11-15T08:23:56;2.53;;;1.33;;
27145;SDS011;17980;51.744;7.190;2022-11-15T08:26:23;2.10;;;1.23;;
27145;SDS011;17980;51.744;7.190;2022-11-15T08:29:00;1.90;;;1.00;;
27145;SDS011;17980;51.744;7.190;2022-11-15T08:31:27;1.90;;;1.00;;
27145;SDS011;17980;51.744;7.190;2022-11-15T08:33:54;1.23;;;0.93;;
27145;SDS011;17980;51.744;7.190;2022-11-15T08:36:31;1.13;;;0.80;;
27145;SDS011;17980;51.744;7.190;2022-11-15T08:38:59;1.83;;;0.80;;
27145;SDS011;17980;51.744;7.190;2022-11-15T08:41:26;1.77;;;0.70;;
27145;SDS011;17980;51.744;7.190;2022-11-15T08:43:55;2.00;;;0.70;;
27145;SDS011;17980;51.744;7.190;2022-11-15T08:46:32;0.87;;;0.80;;
27145;SDS011;17980;51.744;7.190;2022-11-15T08:48:59;1.57;;;0.87;;
27145;SDS011;17980;51.744;7.190;2022-11-15T08:51:27;1.17;;;0.80;;
27145;SDS011;17980;51.744;7.190;2022-11-15T08:53:54;1.17;;;0.87;;
27145;SDS011;17980;51.744;7.190;2022-11-15T08:56:31;2.37;;;1.70;;
27145;SDS011;17980;51.744;7.190;2022-11-15T08:58:58;0.67;;;0.67;;
27145;SDS011;17980;51.744;7.190;2022-11-15T09:01:25;1.17;;;0.90;;
27145;SDS011;17980;51.744;7.190;2022-11-15T09:03:52;1.47;;;0.80;;
27145;SDS011;17980;51.744;7.190;2022-11-15T09:06:29;0.80;;;0.80;;
27145;SDS011;17980;51.744;7.190;2022-11-15T09:08:56;0.60;;;0.60;;
27145;SDS011;17980;51.744;7.190;2022-11-15T09:14:00;0.50;;;0.50;;
27145;SDS011;17980;51.744;7.190;2022-11-15T09:16:27;0.60;;;0.50;;
27145;SDS011;17980;51.744;7.190;2022-11-15T09:19:04;0.30;;;0.30;;
27145;SDS011;17980;51.744;7.190;2022-11-15T09:21:31;0.63;;;0.40;;
27145;SDS011;17980;51.744;7.190;2022-11-15T09:23:58;0.80;;;0.40;;
27145;SDS011;17980;51.744;7.190;2022-11-15T09:26:35;0.80;;;0.47;;
27145;SDS011;17980;51.744;7.190;2022-11-15T09:29:02;1.70;;;0.50;;
27145;SDS011;17980;51.744;7.190;2022-11-15T09:31:30;1.80;;;0.40;;
27145;SDS011;17980;51.744;7.190;2022-11-15T09:33:57;1.23;;;0.63;;
27145;SDS011;17980;51.744;7.190;2022-11-15T09:36:34;1.17;;;0.77;;
27145;SDS011;17980;51.744;7.190;2022-11-15T09:39:02;0.93;;;0.60;;
27145;SDS011;17980;51.744;7.190;2022-11-15T09:41:43;1.87;;;0.53;;
27145;SDS011;17980;51.744;7.190;2022-11-15T09:44:29;1.50;;;0.50;;
27145;SDS011;17980;51.744;7.190;2022-11-15T09:47:21;2.50;;;0.43;;
27145;SDS011;17980;51.744;7.190;2022-11-15T09:49:57;0.40;;;0.40;;
27145;SDS011;17980;51.744;7.190;2022-11-15T09:52:35;1.67;;;0.50;;
27145;SDS011;17980;51.744;7.190;2022-11-15T09:55:07;2.00;;;0.50;;
27145;SDS011;17980;51.744;7.190;2022-11-15T09:57:38;0.80;;;0.50;;
27145;SDS011;17980;51.744;7.190;2022-11-15T10:00:20;0.60;;;0.40;;
27145;SDS011;17980;51.744;7.190;2022-11-15T10:02:53;1.27;;;0.60;;
27145;SDS011;17980;51.744;7.190;2022-11-15T10:05:27;0.63;;;0.60;;
27145;SDS011;17980;51.744;7.190;2022-11-15T10:08:16;2.73;;;0.70;;
27145;SDS011;17980;51.744;7.190;2022-11-15T10:10:53;0.80;;;0.70;;
27145;SDS011;17980;51.744;7.190;2022-11-15T10:13:23;1.70;;;0.83;;
27145;SDS011;17980;51.744;7.190;2022-11-15T10:16:03;2.20;;;2.00;;
27145;SDS011;17980;51.744;7.190;2022-11-15T10:18:34;2.17;;;1.70;;
27145;SDS011;17980;51.744;7.190;2022-11-15T10:21:08;3.30;;;1.00;;
27145;SDS011;17980;51.744;7.190;2022-11-15T10:23:37;2.47;;;1.23;;
27145;SDS011;17980;51.744;7.190;2022-11-15T10:26:04;0.60;;;0.60;;
27145;SDS011;17980;51.744;7.190;2022-11-15T10:28:34;1.47;;;0.80;;
27145;SDS011;17980;51.744;7.190;2022-11-15T10:31:21;0.80;;;0.80;;
27145;SDS011;17980;51.744;7.190;2022-11-15T10:33:51;1.40;;;0.80;;
27145;SDS011;17980;51.744;7.190;2022-11-15T10:36:34;1.10;;;0.90;;
27145;SDS011;17980;51.744;7.190;2022-11-15T10:39:01;2.50;;;0.60;;
27145;SDS011;17980;51.744;7.190;2022-11-15T10:41:40;1.80;;;0.53;;
27145;SDS011;17980;51.744;7.190;2022-11-15T10:44:28;0.60;;;0.50;;
27145;SDS011;17980;51.744;7.190;2022-11-15T10:49:59;3.90;;;1.00;;
27145;SDS011;17980;51.744;7.190;2022-11-15T10:52:29;1.53;;;0.40;;
27145;SDS011;17980;51.744;7.190;2022-11-15T10:55:20;1.60;;;0.40;;
27145;SDS011;17980;51.744;7.190;2022-11-15T10:57:51;3.30;;;0.50;;
27145;SDS011;17980;51.744;7.190;2022-11-15T11:00:30;2.73;;;0.50;;
27145;SDS011;17980;51.744;7.190;2022-11-15T11:03:01;2.20;;;0.47;;
27145;SDS011;17980;51.744;7.190;2022-11-15T11:05:32;2.90;;;0.53;;
27145;SDS011;17980;51.744;7.190;2022-11-15T11:10:38;1.40;;;0.37;;
27145;SDS011;17980;51.744;7.190;2022-11-15T11:13:14;1.60;;;0.50;;
27145;SDS011;17980;51.744;7.190;2022-11-15T11:16:05;1.33;;;0.43;;
27145;SDS011;17980;51.744;7.190;2022-11-15T11:18:48;3.37;;;0.40;;
27145;SDS011;17980;51.744;7.190;2022-11-15T11:21:18;1.50;;;0.40;;
27145;SDS011;17980;51.744;7.190;2022-11-15T11:23:58;5.67;;;0.87;;
27145;SDS011;17980;51.744;7.190;2022-11-15T11:26:32;0.70;;;0.30;;
27145;SDS011;17980;51.744;7.190;2022-11-15T11:29:19;0.83;;;0.50;;
27145;SDS011;17980;51.744;7.190;2022-11-15T11:31:51;0.93;;;0.33;;
27145;SDS011;17980;51.744;7.190;2022-11-15T11:37:09;1.20;;;0.60;;
27145;SDS011;17980;51.744;7.190;2022-11-15T11:39:42;1.23;;;0.47;;
27145;SDS011;17980;51.744;7.190;2022-11-15T11:42:23;1.07;;;0.40;;
27145;SDS011;17980;51.744;7.190;2022-11-15T11:44:55;2.27;;;0.40;;
27145;SDS011;17980;51.744;7.190;2022-11-15T11:47:35;0.97;;;0.30;;
27145;SDS011;17980;51.744;7.190;2022-11-15T11:52:43;1.67;;;0.30;;
27145;SDS011;17980;51.744;7.190;2022-11-15T11:55:13;0.57;;;0.40;;
27145;SDS011;17980;51.744;7.190;2022-11-15T11:57:56;0.40;;;0.40;;
27145;SDS011;17980;51.744;7.190;2022-11-15T12:00:26;0.70;;;0.40;;
27145;SDS011;17980;51.744;7.190;2022-11-15T12:03:05;0.67;;;0.43;;
27145;SDS011;17980;51.744;7.190;2022-11-15T12:05:37;0.60;;;0.40;;
27145;SDS011;17980;51.744;7.190;2022-11-15T12:08:14;1.33;;;0.40;;
27145;SDS011;17980;51.744;7.190;2022-11-15T12:11:08;1.97;;;0.40;;
27145;SDS011;17980;51.744;7.190;2022-11-15T12:13:37;1.73;;;0.30;;
27145;SDS011;17980;51.744;7.190;2022-11-15T12:18:42;0.73;;;0.40;;
27145;SDS011;17980;51.744;7.190;2022-11-15T12:21:15;0.60;;;0.30;;
27145;SDS011;17980;51.744;7.190;2022-11-15T12:26:24;0.77;;;0.40;;
27145;SDS011;17980;51.744;7.190;2022-11-15T12:31:32;1.83;;;0.30;;
27145;SDS011;17980;51.744;7.190;2022-11-15T12:34:14;1.20;;;0.40;;
27145;SDS011;17980;51.744;7.190;2022-11-15T12:36:46;1.77;;;0.70;;
27145;SDS011;17980;51.744;7.190;2022-11-15T12:42:40;3.17;;;0.40;;
27145;SDS011;17980;51.744;7.190;2022-11-15T12:45:24;2.13;;;0.40;;
27145;SDS011;17980;51.744;7.190;2022-11-15T12:54:53;0.80;;;0.40;;
27145;SDS011;17980;51.744;7.190;2022-11-15T12:57:36;1.63;;;0.43;;
27145;SDS011;17980;51.744;7.190;2022-11-15T13:03:25;0.40;;;0.40;;
27145;SDS011;17980;51.744;7.190;2022-11-15T13:06:02;1.17;;;0.50;;
27145;SDS011;17980;51.744;7.190;2022-11-15T13:08:48;0.67;;;0.30;;
27145;SDS011;17980;51.744;7.190;2022-11-15T13:14:40;1.20;;;0.30;;
27145;SDS011;17980;51.744;7.190;2022-11-15T13:17:29;3.97;;;0.47;;
27145;SDS011;17980;51.744;7.190;2022-11-15T13:20:18;0.57;;;0.23;;
27145;SDS011;17980;51.744;7.190;2022-11-15T13:23:11;2.63;;;0.47;;
27145;SDS011;17980;51.744;7.190;2022-11-15T13:25:46;3.27;;;0.40;;
27145;SDS011;17980;51.744;7.190;2022-11-15T13:28:38;2.00;;;0.30;;
27145;SDS011;17980;51.744;7.190;2022-11-15T13:31:22;3.83;;;0.40;;
27145;SDS011;17980;51.744;7.190;2022-11-15T13:34:02;1.27;;;0.40;;
27145;SDS011;17980;51.744;7.190;2022-11-15T13:36:52;2.57;;;0.30;;
27145;SDS011;17980;51.744;7.190;2022-11-15T13:42:20;0.53;;;0.20;;
27145;SDS011;17980;51.744;7.190;2022-11-15T13:47:34;2.73;;;0.40;;
27145;SDS011;17980;51.744;7.190;2022-11-15T13:50:09;2.63;;;0.40;;
27145;SDS011;17980;51.744;7.190;2022-11-15T13:52:51;1.00;;;0.40;;
27145;SDS011;17980;51.744;7.190;2022-11-15T13:55:24;1.80;;;0.30;;
27145;SDS011;17980;51.744;7.190;2022-11-15T13:58:10;1.23;;;0.30;;
27145;SDS011;17980;51.744;7.190;2022-11-15T14:00:40;1.23;;;0.30;;
27145;SDS011;17980;51.744;7.190;2022-11-15T14:03:32;1.43;;;0.40;;
27145;SDS011;17980;51.744;7.190;2022-11-15T14:06:05;1.17;;;0.30;;
27145;SDS011;17980;51.744;7.190;2022-11-15T14:08:57;1.13;;;0.40;;
27145;SDS011;17980;51.744;7.190;2022-11-15T14:11:34;2.60;;;0.30;;
27145;SDS011;17980;51.744;7.190;2022-11-15T14:14:17;2.83;;;0.30;;
27145;SDS011;17980;51.744;7.190;2022-11-15T14:16:47;0.73;;;0.30;;
27145;SDS011;17980;51.744;7.190;2022-11-15T14:19:37;2.10;;;0.37;;
27145;SDS011;17980;51.744;7.190;2022-11-15T14:22:10;0.60;;;0.30;;
27145;SDS011;17980;51.744;7.190;2022-11-15T14:24:40;1.80;;;0.50;;
27145;SDS011;17980;51.744;7.190;2022-11-15T14:27:22;1.33;;;0.40;;
27145;SDS011;17980;51.744;7.190;2022-11-15T14:29:59;1.70;;;0.43;;
27145;SDS011;17980;51.744;7.190;2022-11-15T14:32:43;0.57;;;0.33;;
27145;SDS011;17980;51.744;7.190;2022-11-15T14:35:19;1.03;;;0.30;;
27145;SDS011;17980;51.744;7.190;2022-11-15T14:37:59;3.47;;;0.50;;
27145;SDS011;17980;51.744;7.190;2022-11-15T14:40:29;4.03;;;0.40;;
27145;SDS011;17980;51.744;7.190;2022-11-15T14:43:18;2.97;;;0.50;;
27145;SDS011;17980;51.744;7.190;2022-11-15T14:45:53;2.20;;;0.50;;
27145;SDS011;17980;51.744;7.190;2022-11-15T14:48:36;2.00;;;0.50;;
27145;SDS011;17980;51.744;7.190;2022-11-15T14:51:13;3.27;;;0.47;;
27145;SDS011;17980;51.744;7.190;2022-11-15T14:54:02;0.47;;;0.30;;
27145;SDS011;17980;51.744;7.190;2022-11-15T14:56:39;0.67;;;0.30;;
27145;SDS011;17980;51.744;7.190;2022-11-15T14:59:43;1.60;;;0.40;;
27145;SDS011;17980;51.744;7.190;2022-11-15T15:02:18;2.83;;;0.50;;
27145;SDS011;17980;51.744;7.190;2022-11-15T15:04:59;3.13;;;0.70;;
27145;SDS011;17980;51.744;7.190;2022-11-15T15:07:28;1.63;;;0.30;;
27145;SDS011;17980;51.744;7.190;2022-11-15T15:10:16;5.10;;;0.50;;
27145;SDS011;17980;51.744;7.190;2022-11-15T15:12:52;3.87;;;0.50;;
27145;SDS011;17980;51.744;7.190;2022-11-15T15:15:26;4.50;;;0.40;;
27145;SDS011;17980;51.744;7.190;2022-11-15T15:17:58;2.50;;;0.60;;
27145;SDS011;17980;51.744;7.190;2022-11-15T15:20:44;1.77;;;0.50;;
27145;SDS011;17980;51.744;7.190;2022-11-15T15:23:20;3.90;;;0.80;;
27145;SDS011;17980;51.744;7.190;2022-11-15T15:26:03;4.17;;;0.50;;
27145;SDS011;17980;51.744;7.190;2022-11-15T15:28:31;3.47;;;0.50;;
27145;SDS011;17980;51.744;7.190;2022-11-15T15:31:11;2.83;;;0.43;;
27145;SDS011;17980;51.744;7.190;2022-11-15T15:33:54;1.93;;;0.60;;
27145;SDS011;17980;51.744;7.190;2022-11-15T15:36:24;3.17;;;0.70;;
27145;SDS011;17980;51.744;7.190;2022-11-15T15:39:13;1.50;;;0.50;;
27145;SDS011;17980;51.744;7.190;2022-11-15T15:41:44;1.77;;;0.60;;
27145;SDS011;17980;51.744;7.190;2022-11-15T15:47:24;1.90;;;0.53;;
27145;SDS011;17980;51.744;7.190;2022-11-15T15:49:59;4.17;;;0.60;;
27145;SDS011;17980;51.744;7.190;2022-11-15T15:52:50;5.43;;;0.70;;
27145;SDS011;17980;51.744;7.190;2022-11-15T15:55:27;2.10;;;0.60;;
27145;SDS011;17980;51.744;7.190;2022-11-15T15:57:59;1.63;;;0.70;;
27145;SDS011;17980;51.744;7.190;2022-11-15T16:00:30;3.23;;;0.80;;
27145;SDS011;17980;51.744;7.190;2022-11-15T16:03:12;1.47;;;0.80;;
27145;SDS011;17980;51.744;7.190;2022-11-15T16:05:44;4.03;;;0.80;;
27145;SDS011;17980;51.744;7.190;2022-11-15T16:08:26;4.93;;;0.73;;
27145;SDS011;17980;51.744;7.190;2022-11-15T16:11:10;2.20;;;0.80;;
27145;SDS011;17980;51.744;7.190;2022-11-15T16:13:49;5.70;;;0.90;;